Time;durP1;ratioP1;P1;durP2;ratioP2;P2;SDS_P1;SDS_P2;PMS_P1;PMS_P2;Temp;Humidity;BMP_temperature;BMP_pressure;BME280_temperature;BME280_humidity;BME280_pressure;Samples;Min_cycle;Max_cycle;Signal;HPM_P1;HPM_P2
2022/07/22 00:02:10;;;;;;;3.00;2.80;;;19.30;99.90;19.40;100811.00;;;;4955573;28;108251;-61
2022/07/22 00:04:36;;;;;;;6.32;2.95;;;19.30;99.90;19.40;100819.00;;;;4954376;28;119620;-61
2022/07/22 00:07:01;;;;;;;4.18;3.47;;;19.20;99.90;19.40;100809.00;;;;4955499;28;99472;-59
2022/07/22 00:09:27;;;;;;;4.80;2.72;;;19.20;99.90;19.30;100814.00;;;;4955656;28;88043;-61
2022/07/22 00:11:53;;;;;;;2.83;2.45;;;19.20;99.90;19.30;100806.00;;;;4956169;28;88579;-61
2022/07/22 00:14:19;;;;;;;3.72;3.22;;;19.20;99.90;19.30;100812.00;;;;4954809;28;100835;-61
2022/07/22 00:16:44;;;;;;;3.55;1.92;;;19.10;99.90;19.20;100810.00;;;;4955238;28;109051;-61
2022/07/22 00:19:10;;;;;;;2.72;2.53;;;19.10;99.90;19.20;100816.00;;;;4956133;28;87094;-61
2022/07/22 00:21:36;;;;;;;2.72;2.38;;;19.10;99.90;19.20;100812.00;;;;4954016;28;118006;-61
2022/07/22 00:24:02;;;;;;;3.13;2.70;;;19.00;99.90;19.10;100810.00;;;;4953771;28;116885;-61
2022/07/22 00:26:27;;;;;;;8.13;3.15;;;19.00;99.90;19.10;100817.00;;;;4955272;28;89083;-61
2022/07/22 00:28:53;;;;;;;3.50;2.20;;;19.00;99.90;19.10;100822.00;;;;4954882;28;106492;-61
2022/07/22 00:31:19;;;;;;;6.15;3.28;;;18.90;99.90;19.00;100815.00;;;;4954682;28;116964;-62
2022/07/22 00:33:45;;;;;;;4.40;2.33;;;18.90;99.90;19.00;100815.00;;;;4954593;28;117355;-61
2022/07/22 00:36:10;;;;;;;3.38;2.65;;;18.90;99.90;19.00;100814.00;;;;4956106;28;90892;-61
2022/07/22 00:38:36;;;;;;;2.83;2.55;;;18.90;99.90;19.00;100812.00;;;;4955959;28;88094;-60
2022/07/22 00:41:02;;;;;;;3.60;2.88;;;18.80;99.90;19.00;100816.00;;;;4954501;28;117028;-61
2022/07/22 00:43:27;;;;;;;7.85;2.42;;;18.80;99.90;19.00;100815.00;;;;4954470;28;117852;-61
2022/07/22 00:45:53;;;;;;;2.70;2.50;;;18.80;99.90;19.00;100811.00;;;;4955278;28;111201;-61
2022/07/22 00:48:19;;;;;;;3.13;2.72;;;18.80;99.90;18.90;100814.00;;;;4954531;28;110257;-60
2022/07/22 00:50:45;;;;;;;4.10;2.60;;;18.80;99.90;18.90;100813.00;;;;4954330;28;118663;-61
2022/07/22 00:53:11;;;;;;;3.72;2.50;;;18.80;99.90;18.90;100808.00;;;;4955965;28;89030;-61
2022/07/22 00:55:37;;;;;;;3.97;3.00;;;18.80;99.90;18.90;100814.00;;;;4937024;28;87679;-61
2022/07/22 00:58:04;;;;;;;5.70;2.85;;;18.80;99.90;18.90;100822.00;;;;4936392;28;107987;-61
2022/07/22 01:00:30;;;;;;;3.38;2.90;;;18.80;99.90;18.90;100812.00;;;;4953965;28;117833;-61
2022/07/22 01:02:56;;;;;;;2.58;2.22;;;18.70;99.90;18.90;100816.00;;;;4955167;28;88921;-61
2022/07/22 01:05:22;;;;;;;3.33;2.10;;;18.70;99.90;18.80;100824.00;;;;4954798;28;110339;-60
2022/07/22 01:07:48;;;;;;;2.92;2.25;;;18.70;99.90;18.80;100828.00;;;;4955140;28;102227;-61
2022/07/22 01:10:14;;;;;;;2.75;2.55;;;18.70;99.90;18.80;100823.00;;;;4954282;28;118353;-61
2022/07/22 01:12:39;;;;;;;2.88;2.38;;;18.60;99.90;18.80;100826.00;;;;4954017;28;117110;-61
2022/07/22 01:15:06;;;;;;;4.28;2.10;;;18.60;99.90;18.80;100821.00;;;;4954733;28;89590;-60
2022/07/22 01:17:32;;;;;;;3.58;3.28;;;18.60;99.90;18.70;100822.00;;;;4954642;28;100344;-60
2022/07/22 01:20:06;;;;;;;5.72;3.25;;;18.60;99.90;18.70;100822.00;;;;4953873;28;117650;-61
2022/07/22 01:22:32;;;;;;;3.08;2.60;;;18.60;99.90;18.70;100817.00;;;;4954672;28;87749;-61
2022/07/22 01:24:58;;;;;;;3.38;2.47;;;18.50;99.90;18.70;100820.00;;;;4954593;28;87790;-61
2022/07/22 01:27:23;;;;;;;2.65;2.40;;;18.50;99.90;18.60;100818.00;;;;4954121;28;98439;-61
2022/07/22 01:29:49;;;;;;;3.80;2.10;;;18.50;99.90;18.60;100814.00;;;;4954497;28;89132;-61
2022/07/22 01:32:15;;;;;;;2.50;2.30;;;18.50;99.90;18.60;100821.00;;;;4953839;28;115735;-62
2022/07/22 01:34:43;;;;;;;2.97;2.55;;;18.50;99.90;18.50;100822.00;;;;4936499;28;87817;-60
2022/07/22 01:37:10;;;;;;;3.22;2.58;;;18.40;99.90;18.50;100824.00;;;;4958531;28;87945;-60
2022/07/22 01:39:35;;;;;;;3.00;2.80;;;18.40;99.90;18.50;100825.00;;;;4957902;28;89509;-61
2022/07/22 01:42:01;;;;;;;4.80;2.83;;;18.40;99.90;18.50;100824.00;;;;4957247;28;118523;-61
2022/07/22 01:44:27;;;;;;;1.67;1.58;;;18.40;99.90;18.40;100829.00;;;;4958103;28;109253;-61
2022/07/22 01:46:53;;;;;;;3.00;2.47;;;18.30;99.90;18.40;100824.00;;;;4958285;28;109576;-61
2022/07/22 01:49:19;;;;;;;3.10;2.88;;;18.30;99.90;18.40;100811.00;;;;4957563;28;87909;-61
2022/07/22 01:51:45;;;;;;;2.88;2.58;;;18.30;99.90;18.30;100817.00;;;;4957157;28;116884;-61
2022/07/22 01:54:11;;;;;;;7.50;3.30;;;18.20;99.90;18.30;100818.00;;;;4957620;28;110202;-61
2022/07/22 01:56:36;;;;;;;3.10;2.90;;;18.20;99.90;18.20;100819.00;;;;4938389;28;99131;-61
2022/07/22 01:59:02;;;;;;;5.35;2.90;;;18.10;99.90;18.20;100816.00;;;;4944240;28;118118;-61
2022/07/22 02:01:28;;;;;;;2.88;2.45;;;18.10;99.90;18.20;100816.00;;;;4957651;28;102846;-61
2022/07/22 02:03:54;;;;;;;4.10;3.35;;;18.10;99.90;18.20;100812.00;;;;4956478;28;109692;-61
2022/07/22 02:06:19;;;;;;;4.15;2.75;;;18.10;99.90;18.20;100826.00;;;;4957735;28;91706;-61
2022/07/22 02:08:45;;;;;;;4.05;3.17;;;18.10;99.90;18.20;100818.00;;;;4957476;28;117894;-61
2022/07/22 02:11:11;;;;;;;2.78;2.53;;;18.00;99.90;18.10;100818.00;;;;4958032;28;88628;-60
2022/07/22 02:13:36;;;;;;;4.28;3.22;;;18.00;99.90;18.10;100816.00;;;;4956072;28;110269;-61
2022/07/22 02:16:02;;;;;;;4.07;2.90;;;18.00;99.90;18.10;100823.00;;;;4957485;28;109846;-60
2022/07/22 02:18:28;;;;;;;4.45;3.03;;;18.00;99.90;18.10;100826.00;;;;4957257;28;87927;-61
2022/07/22 02:20:53;;;;;;;4.43;2.70;;;17.90;99.90;18.00;100828.00;;;;4957626;28;116615;-62
2022/07/22 02:23:19;;;;;;;2.70;2.33;;;17.90;99.90;18.00;100826.00;;;;4956838;28;108750;-61
2022/07/22 02:25:45;;;;;;;2.50;2.17;;;17.90;99.90;18.00;100832.00;;;;4956978;28;108867;-60
2022/07/22 02:28:10;;;;;;;2.72;2.53;;;17.90;99.90;17.90;100827.00;;;;4955060;28;117667;-60
2022/07/22 02:30:36;;;;;;;3.10;2.65;;;17.80;99.90;17.90;100823.00;;;;4937137;28;118934;-61
2022/07/22 02:33:02;;;;;;;4.18;2.55;;;17.80;99.90;17.80;100828.00;;;;4961182;28;111059;-61
2022/07/22 02:35:28;;;;;;;9.13;2.97;;;17.80;99.90;17.80;100830.00;;;;4955534;28;96544;-61
2022/07/22 02:37:54;;;;;;;2.97;2.78;;;17.70;99.90;17.80;100836.00;;;;4955578;28;98925;-61
2022/07/22 02:40:19;;;;;;;3.33;2.92;;;17.70;99.90;17.70;100827.00;;;;4939833;28;118448;-61
2022/07/22 02:42:45;;;;;;;3.20;2.40;;;17.60;99.90;17.70;100831.00;;;;4935486;28;107884;-61
2022/07/22 02:45:11;;;;;;;3.58;3.20;;;17.60;99.90;17.70;100831.00;;;;4935976;28;106629;-61
2022/07/22 02:47:50;;;;;;;3.72;2.92;;;17.60;99.90;17.60;100835.00;;;;4936134;28;87879;-61
2022/07/22 02:50:16;;;;;;;3.88;2.97;;;17.50;99.90;17.60;100834.00;;;;4933916;28;87974;-61
2022/07/22 02:52:42;;;;;;;2.53;2.33;;;17.50;99.90;17.50;100846.00;;;;4934690;28;111854;-61
2022/07/22 02:55:08;;;;;;;3.53;3.17;;;17.40;99.90;17.50;100839.00;;;;4927985;28;87913;-61
2022/07/22 02:57:34;;;;;;;4.75;3.30;;;17.40;99.90;17.40;100838.00;;;;4934840;28;117823;-61
2022/07/22 03:00:00;;;;;;;2.95;2.67;;;17.30;99.90;17.40;100837.00;;;;4935470;28;105910;-60
2022/07/22 03:02:26;;;;;;;5.03;3.30;;;17.30;99.90;17.30;100844.00;;;;4935747;28;87446;-61
2022/07/22 03:04:51;;;;;;;3.63;2.75;;;17.20;99.90;17.30;100848.00;;;;4935403;28;105039;-60
2022/07/22 03:07:17;;;;;;;5.28;3.40;;;17.20;99.90;17.30;100839.00;;;;4935139;28;118658;-60
2022/07/22 03:09:45;;;;;;;3.65;3.22;;;17.20;99.90;17.20;100856.00;;;;4934909;28;115920;-60
2022/07/22 03:12:10;;;;;;;3.33;2.50;;;17.10;99.90;17.20;100854.00;;;;4935760;28;87950;-61
2022/07/22 03:14:36;;;;;;;4.15;3.35;;;17.10;99.90;17.20;100855.00;;;;4935372;28;108417;-60
2022/07/22 03:17:02;;;;;;;3.38;2.55;;;17.10;99.90;17.20;100854.00;;;;4934382;28;118760;-59
2022/07/22 03:19:27;;;;;;;5.53;2.90;;;17.10;99.90;17.10;100856.00;;;;4934816;28;89981;-61
2022/07/22 03:21:53;;;;;;;2.65;2.45;;;17.00;99.90;17.10;100862.00;;;;4935340;28;100812;-60
2022/07/22 03:24:19;;;;;;;4.38;3.72;;;17.00;99.90;17.10;100855.00;;;;4934549;28;108272;-61
2022/07/22 03:26:44;;;;;;;4.57;3.22;;;17.00;99.90;17.10;100858.00;;;;4934633;28;117120;-60
2022/07/22 03:29:10;;;;;;;6.25;3.08;;;17.00;99.90;17.10;100866.00;;;;4911912;28;1135741;-60
2022/07/22 03:31:36;;;;;;;4.25;3.25;;;17.00;99.90;17.10;100869.00;;;;4955159;28;100511;-61
2022/07/22 03:34:01;;;;;;;7.97;3.35;;;17.00;99.90;17.10;100865.00;;;;4937911;28;87044;-61
2022/07/22 03:36:29;;;;;;;3.28;2.97;;;17.00;99.90;17.00;100858.00;;;;4955455;28;87931;-60
2022/07/22 03:38:55;;;;;;;3.63;3.00;;;16.90;99.90;17.00;100855.00;;;;4956717;28;88024;-60
2022/07/22 03:41:21;;;;;;;4.28;2.78;;;16.90;99.90;17.00;100869.00;;;;4954781;28;99046;-60
2022/07/22 03:43:47;;;;;;;4.57;2.90;;;16.90;99.90;17.00;100864.00;;;;4955303;28;91693;-60
2022/07/22 03:46:14;;;;;;;9.82;4.13;;;16.90;99.90;17.00;100863.00;;;;4955774;28;96780;-61
2022/07/22 03:48:40;;;;;;;5.78;3.40;;;16.90;99.90;17.10;100856.00;;;;4955524;28;87655;-60
2022/07/22 03:51:05;;;;;;;5.10;2.70;;;16.90;99.90;17.10;100855.00;;;;4955209;28;108351;-60
2022/07/22 03:53:32;;;;;;;3.55;2.90;;;16.90;99.90;17.10;100860.00;;;;4955441;28;87799;-60
2022/07/22 03:55:59;;;;;;;4.30;3.17;;;16.90;99.90;17.10;100853.00;;;;4955074;28;89152;-60
2022/07/22 03:58:26;;;;;;;3.58;3.28;;;17.00;99.90;17.10;100857.00;;;;4954054;28;101214;-61
2022/07/22 04:00:52;;;;;;;3.53;3.20;;;17.00;99.90;17.10;100858.00;;;;4955705;28;87795;-61
2022/07/22 04:03:19;;;;;;;5.43;3.08;;;17.00;99.90;17.10;100867.00;;;;4954380;28;99995;-60
2022/07/22 04:05:45;;;;;;;3.40;2.63;;;17.00;99.90;17.20;100857.00;;;;4953194;28;90609;-60
2022/07/22 04:08:11;;;;;;;3.25;2.95;;;17.00;99.90;17.20;100861.00;;;;4935581;28;88819;-60
2022/07/22 04:10:37;;;;;;;4.15;3.00;;;17.10;99.90;17.30;100868.00;;;;4954134;28;103412;-61
2022/07/22 04:13:03;;;;;;;3.38;3.08;;;17.10;99.90;17.30;100860.00;;;;4936445;28;87975;-61
2022/07/22 04:15:29;;;;;;;3.97;3.10;;;17.20;99.90;17.40;100859.00;;;;4954994;28;97739;-60
2022/07/22 04:17:55;;;;;;;3.10;2.90;;;17.20;99.90;17.40;100864.00;;;;4935382;28;88002;-61
2022/07/22 04:20:21;;;;;;;4.53;2.38;;;17.30;99.90;17.50;100866.00;;;;4953398;28;88660;-61
2022/07/22 04:22:46;;;;;;;3.40;3.10;;;17.30;99.90;17.60;100872.00;;;;4953952;28;86987;-60
2022/07/22 04:25:12;;;;;;;4.28;2.92;;;17.40;99.90;17.60;100866.00;;;;4953714;28;117765;-60
2022/07/22 04:27:38;;;;;;;3.55;2.80;;;17.50;99.90;17.70;100857.00;;;;4953280;28;115608;-61
2022/07/22 04:30:04;;;;;;;3.05;2.65;;;17.50;99.90;17.80;100877.00;;;;4953894;28;90083;-61
2022/07/22 04:32:30;;;;;;;5.40;2.58;;;17.60;99.90;17.90;100881.00;;;;4953749;28;99753;-61
2022/07/22 04:34:56;;;;;;;4.85;3.67;;;17.70;99.90;18.00;100879.00;;;;4953477;28;111065;-60
2022/07/22 04:37:21;;;;;;;3.22;2.78;;;17.80;99.90;18.10;100880.00;;;;4952984;28;118279;-60
2022/07/22 04:39:47;;;;;;;3.08;2.85;;;17.90;99.90;18.20;100879.00;;;;4953074;28;109613;-61
2022/07/22 04:42:13;;;;;;;4.25;3.08;;;18.00;99.90;18.30;100879.00;;;;4953728;28;105216;-59
2022/07/22 04:44:38;;;;;;;2.03;1.83;;;18.10;99.90;18.40;100883.00;;;;4953095;28;117938;-60
2022/07/22 04:47:04;;;;;;;3.53;2.83;;;18.20;99.90;18.50;100880.00;;;;4954777;28;89382;-59
2022/07/22 04:49:30;;;;;;;2.85;2.55;;;18.30;99.90;18.70;100875.00;;;;4952735;28;102960;-61
2022/07/22 04:51:55;;;;;;;2.05;1.83;;;18.50;99.90;18.80;100877.00;;;;4953301;28;109002;-61
2022/07/22 04:54:21;;;;;;;3.17;2.65;;;18.60;99.90;19.00;100877.00;;;;4952192;28;119122;-62
2022/07/22 04:56:47;;;;;;;3.45;2.65;;;18.70;99.90;19.10;100877.00;;;;4953411;28;117004;-61
2022/07/22 04:59:12;;;;;;;8.82;3.35;;;18.90;99.90;19.30;100876.00;;;;4952886;28;104113;-61
2022/07/22 05:01:38;;;;;;;2.30;2.10;;;19.00;99.90;19.40;100877.00;;;;4953148;28;108034;-61
2022/07/22 05:04:04;;;;;;;3.47;2.42;;;19.20;99.90;19.50;100875.00;;;;4952778;28;117971;-61
2022/07/22 05:06:30;;;;;;;4.40;2.00;;;19.30;99.90;19.60;100878.00;;;;4934790;28;91485;-62
2022/07/22 05:08:55;;;;;;;2.22;1.60;;;19.40;99.90;19.80;100875.00;;;;4952245;28;111349;-61
2022/07/22 05:11:21;;;;;;;2.95;2.50;;;19.60;99.90;19.90;100877.00;;;;4954092;28;98969;-62
2022/07/22 05:13:48;;;;;;;3.03;2.42;;;19.70;99.90;20.00;100887.00;;;;4952593;28;117545;-61
2022/07/22 05:16:13;;;;;;;1.25;1.15;;;19.80;99.90;20.10;100883.00;;;;4953727;28;89125;-61
2022/07/22 05:18:39;;;;;;;4.65;3.15;;;19.90;99.90;20.20;100883.00;;;;4952980;28;110299;-61
2022/07/22 05:21:05;;;;;;;3.55;2.40;;;20.00;99.90;20.40;100879.00;;;;4953453;28;109216;-62
2022/07/22 05:23:31;;;;;;;2.70;2.28;;;20.20;99.90;20.50;100877.00;;;;4953296;28;88055;-62
2022/07/22 05:25:57;;;;;;;2.50;1.90;;;20.30;99.90;20.70;100883.00;;;;4953585;28;87767;-61
2022/07/22 05:28:24;;;;;;;2.13;1.73;;;20.40;99.90;20.90;100889.00;;;;4952284;28;109747;-62
2022/07/22 05:30:49;;;;;;;2.85;2.30;;;20.60;99.90;21.00;100885.00;;;;4953653;28;87670;-62
2022/07/22 05:33:15;;;;;;;2.22;1.88;;;20.80;99.90;21.20;100887.00;;;;4952947;28;117849;-62
2022/07/22 05:35:41;;;;;;;2.38;1.98;;;20.90;99.90;21.30;100886.00;;;;4952376;28;117581;-62
2022/07/22 05:38:06;;;;;;;3.05;1.70;;;21.00;99.90;21.50;100883.00;;;;4953079;28;97483;-61
2022/07/22 05:40:32;;;;;;;3.95;2.58;;;21.20;99.90;21.70;100885.00;;;;4952979;28;107447;-62
2022/07/22 05:42:58;;;;;;;2.60;1.92;;;21.40;99.90;21.90;100897.00;;;;4952073;28;113786;-63
2022/07/22 05:45:24;;;;;;;2.95;1.83;;;21.60;99.90;22.00;100881.00;;;;4933498;28;119028;-61
2022/07/22 05:47:49;;;;;;;2.13;1.95;;;21.70;99.90;22.20;100888.00;;;;4952934;28;111085;-62
2022/07/22 05:50:15;;;;;;;1.98;1.50;;;21.90;99.90;22.30;100888.00;;;;4951933;28;108803;-63
2022/07/22 05:52:42;;;;;;;3.22;1.70;;;22.00;99.90;22.40;100887.00;;;;4952278;28;105232;-62
2022/07/22 05:55:08;;;;;;;3.25;1.95;;;22.20;99.90;22.60;100881.00;;;;4952675;28;88764;-63
2022/07/22 05:57:34;;;;;;;4.80;1.83;;;22.30;99.90;22.70;100885.00;;;;4954039;28;87941;-62
2022/07/22 05:59:59;;;;;;;3.55;1.92;;;22.50;99.90;22.90;100886.00;;;;4953326;28;109593;-63
2022/07/22 06:02:25;;;;;;;1.83;1.45;;;22.60;99.90;23.10;100885.00;;;;4953196;28;117065;-63
2022/07/22 06:04:51;;;;;;;3.90;1.70;;;22.80;99.90;23.20;100888.00;;;;4933504;28;116490;-63
2022/07/22 06:07:17;;;;;;;2.35;1.65;;;23.00;99.90;23.40;100885.00;;;;4952131;28;90360;-61
2022/07/22 06:09:42;;;;;;;1.90;1.80;;;23.10;99.90;23.50;100889.00;;;;4952883;28;87630;-62
2022/07/22 06:12:08;;;;;;;3.25;2.08;;;23.30;99.90;23.60;100890.00;;;;4952431;28;118433;-62
2022/07/22 06:14:36;;;;;;;1.75;1.65;;;23.30;99.90;23.60;100894.00;;;;4952998;28;100029;-62
2022/07/22 06:17:02;;;;;;;2.53;1.85;;;23.40;99.90;23.70;100883.00;;;;4953198;28;88065;-63
2022/07/22 06:19:29;;;;;;;2.47;1.42;;;23.40;99.90;23.70;100893.00;;;;4952104;28;97807;-62
2022/07/22 06:21:55;;;;;;;3.92;1.83;;;23.50;99.90;23.80;100896.00;;;;4955437;28;89086;-63
2022/07/22 06:24:21;;;;;;;2.08;1.77;;;23.60;99.90;23.80;100887.00;;;;4956492;28;88387;-63
2022/07/22 06:26:46;;;;;;;4.15;2.47;;;23.60;99.90;24.00;100888.00;;;;4955687;28;110063;-63
2022/07/22 06:29:12;;;;;;;1.77;1.25;;;23.70;99.90;24.10;100886.00;;;;4955267;28;109223;-63
2022/07/22 06:31:38;;;;;;;11.68;1.75;;;23.90;99.90;24.20;100888.00;;;;4954640;28;118925;-63
2022/07/22 06:34:05;;;;;;;1.67;1.30;;;24.00;99.90;24.30;100889.00;;;;4956042;28;116832;-62
2022/07/22 06:36:32;;;;;;;2.55;1.92;;;24.10;99.90;24.40;100887.00;;;;4956488;28;87803;-63
2022/07/22 06:38:58;;;;;;;1.60;1.50;;;24.20;99.80;24.50;100880.00;;;;4956409;28;91081;-63
2022/07/22 06:41:24;;;;;;;2.13;1.65;;;24.30;99.30;24.60;100889.00;;;;4955639;28;118345;-63
2022/07/22 06:43:50;;;;;;;3.13;2.30;;;24.40;98.50;24.60;100893.00;;;;4955627;28;104688;-62
2022/07/22 06:46:15;;;;;;;4.53;2.38;;;24.40;98.10;24.60;100888.00;;;;4956023;28;96342;-62
2022/07/22 06:48:41;;;;;;;2.88;1.58;;;24.40;97.70;24.60;100892.00;;;;4956880;28;87115;-63
2022/07/22 06:51:07;;;;;;;2.03;1.63;;;24.40;97.00;24.70;100894.00;;;;4955877;28;118029;-63
2022/07/22 06:53:33;;;;;;;2.03;1.77;;;24.50;97.10;24.80;100893.00;;;;4955825;28;88437;-63
2022/07/22 06:55:58;;;;;;;1.92;1.73;;;24.60;96.30;24.80;100891.00;;;;4956106;28;88590;-62
2022/07/22 06:58:24;;;;;;;1.92;1.02;;;24.60;95.80;24.90;100893.00;;;;4955730;28;107372;-62
2022/07/22 07:00:50;;;;;;;2.08;1.30;;;24.60;95.50;24.90;100880.00;;;;4954833;28;119122;-63
2022/07/22 07:03:15;;;;;;;3.50;1.55;;;24.70;95.40;25.00;100882.00;;;;4954649;28;117491;-62
2022/07/22 07:05:41;;;;;;;2.50;1.55;;;24.70;95.30;25.20;100885.00;;;;4956313;28;87846;-62
2022/07/22 07:08:07;;;;;;;2.33;1.83;;;24.90;95.30;25.30;100879.00;;;;4955276;28;108316;-63
2022/07/22 07:10:33;;;;;;;3.47;1.52;;;25.00;94.50;25.50;100884.00;;;;4955977;28;89053;-63
2022/07/22 07:12:59;;;;;;;3.03;1.10;;;25.20;94.00;25.70;100890.00;;;;4956336;28;87872;-63
2022/07/22 07:15:27;;;;;;;2.63;1.42;;;25.40;93.50;25.80;100881.00;;;;4955340;28;105343;-63
2022/07/22 07:17:56;;;;;;;2.03;1.30;;;25.50;92.90;25.90;100884.00;;;;4936909;28;91414;-62
2022/07/22 07:20:23;;;;;;;1.85;1.20;;;25.60;92.70;26.00;100888.00;;;;4950023;28;90510;-62
2022/07/22 07:22:49;;;;;;;1.80;1.00;;;25.70;91.50;25.90;100895.00;;;;4955620;28;89065;-64
2022/07/22 07:25:15;;;;;;;0.88;0.88;;;25.70;91.00;26.00;100888.00;;;;4935718;28;108895;-63
2022/07/22 07:27:41;;;;;;;1.15;0.98;;;25.80;91.00;26.00;100894.00;;;;4937831;28;93174;-60
2022/07/22 07:30:09;;;;;;;1.35;0.98;;;25.80;90.40;26.10;100893.00;;;;4954134;28;117604;-63
2022/07/22 07:32:36;;;;;;;2.13;1.23;;;25.90;90.60;26.10;100892.00;;;;4955129;28;87876;-62
2022/07/22 07:35:04;;;;;;;2.38;1.80;;;25.80;89.90;26.00;100902.00;;;;4955859;28;90762;-63
2022/07/22 07:37:30;;;;;;;1.95;1.30;;;25.80;90.00;26.00;100904.00;;;;4955700;28;102257;-62
2022/07/22 07:39:56;;;;;;;3.03;1.75;;;25.80;89.90;26.00;100896.00;;;;4954291;28;116943;-62
2022/07/22 07:42:22;;;;;;;1.05;0.85;;;25.80;89.60;26.00;100904.00;;;;4955092;28;107836;-62
2022/07/22 07:44:47;;;;;;;3.05;1.60;;;25.70;89.20;25.90;100902.00;;;;4954438;28;109100;-63
2022/07/22 07:47:17;;;;;;;2.17;1.63;;;25.70;88.30;25.80;100903.00;;;;4955866;28;94082;-63
2022/07/22 07:49:44;;;;;;;1.27;1.17;;;25.60;88.60;25.70;100894.00;;;;4955819;28;87970;-62
2022/07/22 07:52:12;;;;;;;1.40;1.17;;;25.50;89.50;25.60;100902.00;;;;4955807;28;89402;-62
2022/07/22 07:54:39;;;;;;;1.98;1.08;;;25.40;86.90;25.50;100893.00;;;;4955785;28;87881;-63
2022/07/22 07:57:06;;;;;;;1.20;1.02;;;25.30;87.00;25.40;100896.00;;;;4956430;28;87688;-62
2022/07/22 07:59:32;;;;;;;1.30;1.05;;;25.20;87.30;25.40;100904.00;;;;4954858;28;103369;-62
2022/07/22 08:01:58;;;;;;;1.05;0.95;;;25.20;87.30;25.50;100900.00;;;;4955197;28;117400;-62
2022/07/22 08:04:25;;;;;;;2.15;1.15;;;25.20;88.00;25.70;100906.00;;;;4955310;28;110221;-63
2022/07/22 08:06:50;;;;;;;1.92;1.05;;;25.40;88.00;25.80;100906.00;;;;4937103;28;101118;-62
2022/07/22 08:09:16;;;;;;;1.30;1.00;;;25.50;87.00;25.90;100903.00;;;;4953886;28;119082;-62
2022/07/22 08:11:42;;;;;;;2.30;1.38;;;25.60;87.10;26.00;100905.00;;;;4954587;28;116828;-63
2022/07/22 08:14:07;;;;;;;1.27;1.17;;;25.70;86.10;26.10;100910.00;;;;4954527;28;109963;-62
2022/07/22 08:16:33;;;;;;;1.50;1.35;;;25.80;86.20;26.30;100915.00;;;;4955855;28;87623;-62
2022/07/22 08:18:59;;;;;;;2.17;1.15;;;25.90;86.20;26.50;100903.00;;;;4955152;28;118260;-62
2022/07/22 08:21:25;;;;;;;1.73;1.30;;;26.10;86.20;26.60;100914.00;;;;4956850;28;90342;-62
2022/07/22 08:23:52;;;;;;;2.88;1.33;;;26.30;86.00;26.80;100921.00;;;;4959366;28;87593;-62
2022/07/22 08:26:18;;;;;;;1.60;1.40;;;26.40;84.80;26.80;100926.00;;;;4965694;28;86498;-62
2022/07/22 08:28:44;;;;;;;4.13;1.75;;;26.50;83.90;26.90;100912.00;;;;4958613;28;87651;-62
2022/07/22 08:31:10;;;;;;;2.15;1.60;;;26.60;83.90;27.00;100914.00;;;;4953748;28;117843;-62
2022/07/22 08:33:36;;;;;;;1.90;1.20;;;26.70;83.80;27.10;100917.00;;;;4954455;28;88707;-63
2022/07/22 08:36:02;;;;;;;2.80;1.50;;;26.70;83.40;27.10;100914.00;;;;4954623;28;87775;-63
2022/07/22 08:38:28;;;;;;;2.53;1.35;;;26.80;82.80;27.10;100914.00;;;;4954515;28;89559;-63
2022/07/22 08:40:55;;;;;;;1.38;1.25;;;26.80;82.50;27.20;100907.00;;;;4953510;28;117583;-63
2022/07/22 08:43:22;;;;;;;2.55;1.38;;;26.90;81.40;27.30;100913.00;;;;4919756;28;87908;-63
2022/07/22 08:45:49;;;;;;;1.45;1.10;;;27.00;80.50;27.40;100907.00;;;;4954026;28;87959;-63
2022/07/22 08:48:14;;;;;;;1.25;1.10;;;27.10;79.20;27.50;100913.00;;;;4934911;28;117502;-63
2022/07/22 08:50:41;;;;;;;1.65;0.90;;;27.20;78.10;27.80;100915.00;;;;4953969;28;115920;-63
2022/07/22 08:53:12;;;;;;;1.52;1.38;;;27.40;77.50;27.90;100907.00;;;;4954527;28;87732;-63
2022/07/22 08:55:46;;;;;;;1.77;1.40;;;27.60;76.00;28.10;100910.00;;;;4954942;28;87944;-63
2022/07/22 08:58:12;;;;;;;1.50;1.40;;;27.80;75.90;28.30;100900.00;;;;4953782;28;90255;-62
2022/07/22 09:00:39;;;;;;;1.77;1.20;;;28.00;73.80;28.40;100905.00;;;;4954645;28;89852;-62
2022/07/22 09:03:25;;;;;;;1.92;1.27;;;28.10;73.00;28.40;100898.00;;;;4954386;28;87907;-63
2022/07/22 09:05:51;;;;;;;1.50;1.08;;;28.10;72.60;28.40;100909.00;;;;4954965;28;88346;-60
2022/07/22 09:08:18;;;;;;;1.77;1.40;;;28.20;71.90;28.50;100895.00;;;;4954167;28;88248;-61
2022/07/22 09:10:44;;;;;;;1.85;1.42;;;28.20;71.10;28.50;100898.00;;;;4954505;28;107006;-62
2022/07/22 09:13:11;;;;;;;1.80;1.70;;;28.20;70.40;28.50;100899.00;;;;4954348;28;87923;-63
2022/07/22 09:15:45;;;;;;;2.53;1.38;;;28.20;67.50;28.40;100909.00;;;;4936501;28;86956;-63
2022/07/22 09:18:11;;;;;;;3.80;2.10;;;28.10;68.20;28.20;100903.00;;;;4935891;28;88092;-63
2022/07/22 09:20:38;;;;;;;1.75;1.30;;;28.00;65.40;27.80;100899.00;;;;4953264;28;116823;-63
2022/07/22 09:23:12;;;;;;;1.48;1.38;;;27.70;65.50;27.50;100901.00;;;;4953339;28;88791;-63
2022/07/22 09:25:40;;;;;;;1.55;1.45;;;27.40;67.00;27.40;100904.00;;;;4936037;28;88009;-63
2022/07/22 09:28:05;;;;;;;1.95;1.23;;;27.20;68.20;27.30;100912.00;;;;4953670;28;88503;-63
2022/07/22 09:30:33;;;;;;;2.30;1.50;;;27.10;69.20;27.30;100908.00;;;;4953546;28;112513;-63
2022/07/22 09:32:59;;;;;;;1.13;1.02;;;27.10;70.00;27.20;100911.00;;;;4954344;28;100565;-63
2022/07/22 09:35:25;;;;;;;1.80;1.48;;;27.00;70.30;27.10;100905.00;;;;4955178;28;90986;-63
2022/07/22 09:38:01;;;;;;;2.28;1.13;;;26.80;70.60;26.90;100911.00;;;;4954688;28;88684;-63
2022/07/22 09:40:46;;;;;;;4.05;1.38;;;26.70;71.20;26.80;100915.00;;;;4945922;28;88156;-63
2022/07/22 09:43:16;;;;;;;1.65;1.35;;;26.60;71.70;26.70;100908.00;;;;4936436;28;87616;-63
2022/07/22 09:45:57;;;;;;;3.13;1.60;;;26.50;72.40;26.60;100908.00;;;;4947669;28;87667;-62
2022/07/22 09:48:23;;;;;;;2.05;1.00;;;26.40;72.90;26.50;100913.00;;;;4954436;28;89006;-63
2022/07/22 09:50:52;;;;;;;2.28;1.45;;;26.30;73.30;26.50;100915.00;;;;4954621;28;95691;-63
2022/07/22 09:53:22;;;;;;;1.60;1.40;;;26.20;73.50;26.30;100918.00;;;;4954703;28;87829;-63
2022/07/22 09:55:48;;;;;;;3.05;1.42;;;26.10;73.90;26.30;100921.00;;;;4955214;28;87831;-62
2022/07/22 09:58:13;;;;;;;1.30;1.20;;;26.10;74.40;26.20;100920.00;;;;4957416;28;88598;-62
2022/07/22 10:00:41;;;;;;;1.80;1.13;;;26.00;74.70;26.20;100916.00;;;;4958039;28;93308;-62
2022/07/22 10:03:11;;;;;;;1.35;1.05;;;25.90;75.00;26.10;100912.00;;;;4957917;28;87828;-63
2022/07/22 10:05:40;;;;;;;1.55;1.45;;;25.80;75.20;26.10;100919.00;;;;4958090;28;89860;-63
2022/07/22 10:08:08;;;;;;;2.63;1.50;;;25.80;75.70;26.10;100923.00;;;;4957699;28;87726;-63
2022/07/22 10:10:36;;;;;;;2.83;1.17;;;25.80;76.10;26.20;100914.00;;;;4956528;28;88708;-62
2022/07/22 10:13:04;;;;;;;1.73;1.48;;;25.90;76.30;26.30;100917.00;;;;4956666;28;98926;-63
2022/07/22 10:15:32;;;;;;;1.60;1.40;;;25.90;76.20;26.50;100906.00;;;;4957273;28;89283;-63
2022/07/22 10:18:03;;;;;;;2.25;1.55;;;26.10;76.10;26.60;100903.00;;;;4956895;28;94783;-61
2022/07/22 10:20:30;;;;;;;2.90;1.55;;;26.20;76.00;26.90;100904.00;;;;4957258;28;88818;-62
2022/07/22 10:23:01;;;;;;;2.08;1.63;;;26.40;75.70;27.00;100911.00;;;;4957384;28;88114;-62
2022/07/22 10:25:31;;;;;;;2.15;1.55;;;26.60;75.30;27.20;100904.00;;;;4957607;28;87768;-62
2022/07/22 10:28:03;;;;;;;1.90;1.30;;;26.70;75.40;27.50;100901.00;;;;4957844;28;88282;-62
2022/07/22 10:30:33;;;;;;;3.60;2.33;;;27.00;75.00;27.80;100889.00;;;;4957599;28;88213;-62
2022/07/22 10:33:03;;;;;;;1.67;1.48;;;27.20;74.40;28.10;100894.00;;;;4957253;28;87584;-63
2022/07/22 10:35:30;;;;;;;1.85;1.55;;;27.50;72.70;28.40;100898.00;;;;4957642;28;87867;-63
2022/07/22 10:37:59;;;;;;;1.38;1.10;;;27.80;71.60;28.80;100898.00;;;;4937593;28;89913;-64
2022/07/22 10:40:32;;;;;;;2.33;1.73;;;28.10;70.30;29.20;100897.00;;;;4957501;28;88338;-63